sensor_id;sensor_type;location;lat;lon;timestamp;temperature;humidity
54082;DHT22;39986;50.770;0.266;2022-08-11T00:00:39;21.20;99.90
54082;DHT22;39986;50.770;0.266;2022-08-11T00:03:34;21.20;99.90
54082;DHT22;39986;50.770;0.266;2022-08-11T00:06:04;21.20;99.90
54082;DHT22;39986;50.770;0.266;2022-08-11T00:08:30;21.20;99.90
54082;DHT22;39986;50.770;0.266;2022-08-11T00:11:03;21.10;99.90
54082;DHT22;39986;50.770;0.266;2022-08-11T00:13:42;21.10;99.90
54082;DHT22;39986;50.770;0.266;2022-08-11T00:16:23;21.00;99.90
54082;DHT22;39986;50.770;0.266;2022-08-11T00:18:52;21.10;99.90
54082;DHT22;39986;50.770;0.266;2022-08-11T00:21:23;21.00;99.90
54082;DHT22;39986;50.770;0.266;2022-08-11T00:23:57;21.00;99.90
54082;DHT22;39986;50.770;0.266;2022-08-11T00:26:27;21.00;99.90
54082;DHT22;39986;50.770;0.266;2022-08-11T00:28:53;21.00;99.90
54082;DHT22;39986;50.770;0.266;2022-08-11T00:31:29;20.90;99.90
54082;DHT22;39986;50.770;0.266;2022-08-11T00:33:57;20.90;99.90
54082;DHT22;39986;50.770;0.266;2022-08-11T00:36:39;20.90;99.90
54082;DHT22;39986;50.770;0.266;2022-08-11T00:39:09;20.90;99.90
54082;DHT22;39986;50.770;0.266;2022-08-11T00:49:37;20.90;99.90
54082;DHT22;39986;50.770;0.266;2022-08-11T00:52:18;20.80;99.90
54082;DHT22;39986;50.770;0.266;2022-08-11T00:55:06;20.80;99.90
54082;DHT22;39986;50.770;0.266;2022-08-11T00:58:09;20.80;99.90
54082;DHT22;39986;50.770;0.266;2022-08-11T01:19:54;20.70;99.90
54082;DHT22;39986;50.770;0.266;2022-08-11T01:22:43;20.60;99.90
54082;DHT22;39986;50.770;0.266;2022-08-11T01:36:52;20.50;99.90
54082;DHT22;39986;50.770;0.266;2022-08-11T01:45:29;20.50;99.90
54082;DHT22;39986;50.770;0.266;2022-08-11T01:53:59;20.40;99.90
54082;DHT22;39986;50.770;0.266;2022-08-11T01:56:48;20.40;99.90
54082;DHT22;39986;50.770;0.266;2022-08-11T01:59:27;20.40;99.90
54082;DHT22;39986;50.770;0.266;2022-08-11T02:05:46;20.40;99.90
54082;DHT22;39986;50.770;0.266;2022-08-11T02:14:25;20.30;99.90
54082;DHT22;39986;50.770;0.266;2022-08-11T02:17:06;20.30;99.90
54082;DHT22;39986;50.770;0.266;2022-08-11T02:23:39;20.30;99.90
54082;DHT22;39986;50.770;0.266;2022-08-11T02:26:21;20.30;99.90
54082;DHT22;39986;50.770;0.266;2022-08-11T02:28:59;20.30;99.90
54082;DHT22;39986;50.770;0.266;2022-08-11T02:31:47;20.20;99.90
54082;DHT22;39986;50.770;0.266;2022-08-11T02:35:03;20.20;99.90
54082;DHT22;39986;50.770;0.266;2022-08-11T02:50:22;20.10;99.90
54082;DHT22;39986;50.770;0.266;2022-08-11T03:01:22;20.10;99.90
54082;DHT22;39986;50.770;0.266;2022-08-11T03:04:04;20.00;99.90
54082;DHT22;39986;50.770;0.266;2022-08-11T03:06:51;20.00;99.90
54082;DHT22;39986;50.770;0.266;2022-08-11T03:09:41;19.90;99.90
54082;DHT22;39986;50.770;0.266;2022-08-11T03:12:24;19.90;99.90
54082;DHT22;39986;50.770;0.266;2022-08-11T03:18:17;19.90;99.90
54082;DHT22;39986;50.770;0.266;2022-08-11T03:28:39;19.80;99.90
54082;DHT22;39986;50.770;0.266;2022-08-11T03:33:43;19.80;99.90
54082;DHT22;39986;50.770;0.266;2022-08-11T03:39:46;19.80;99.90
54082;DHT22;39986;50.770;0.266;2022-08-11T03:42:56;19.80;99.90
54082;DHT22;39986;50.770;0.266;2022-08-11T03:45:35;19.80;99.90
54082;DHT22;39986;50.770;0.266;2022-08-11T03:48:26;19.80;99.90
54082;DHT22;39986;50.770;0.266;2022-08-11T04:10:58;19.60;99.90
54082;DHT22;39986;50.770;0.266;2022-08-11T04:25:16;19.60;99.90
54082;DHT22;39986;50.770;0.266;2022-08-11T04:30:33;19.60;99.90
54082;DHT22;39986;50.770;0.266;2022-08-11T04:36:01;19.60;99.90
54082;DHT22;39986;50.770;0.266;2022-08-11T04:39:09;19.60;99.90
54082;DHT22;39986;50.770;0.266;2022-08-11T04:56:25;19.60;99.90
54082;DHT22;39986;50.770;0.266;2022-08-11T05:02:49;19.80;99.90
54082;DHT22;39986;50.770;0.266;2022-08-11T05:13:32;20.40;99.90
54082;DHT22;39986;50.770;0.266;2022-08-11T05:16:21;20.30;99.90
54082;DHT22;39986;50.770;0.266;2022-08-11T05:19:18;20.30;99.90
54082;DHT22;39986;50.770;0.266;2022-08-11T05:22:06;20.40;99.90
54082;DHT22;39986;50.770;0.266;2022-08-11T05:25:04;20.40;99.90
54082;DHT22;39986;50.770;0.266;2022-08-11T05:31:05;20.80;99.90
54082;DHT22;39986;50.770;0.266;2022-08-11T05:33:56;21.50;99.90
54082;DHT22;39986;50.770;0.266;2022-08-11T05:36:54;22.50;99.90
54082;DHT22;39986;50.770;0.266;2022-08-11T05:39:32;23.90;99.90
54082;DHT22;39986;50.770;0.266;2022-08-11T05:42:21;24.30;99.90
54082;DHT22;39986;50.770;0.266;2022-08-11T05:45:12;24.90;99.90
54082;DHT22;39986;50.770;0.266;2022-08-11T05:47:57;25.70;99.90
54082;DHT22;39986;50.770;0.266;2022-08-11T05:50:54;26.30;99.90
54082;DHT22;39986;50.770;0.266;2022-08-11T05:53:52;27.10;99.90
54082;DHT22;39986;50.770;0.266;2022-08-11T05:56:58;27.70;99.90
54082;DHT22;39986;50.770;0.266;2022-08-11T05:59:26;28.50;99.90
54082;DHT22;39986;50.770;0.266;2022-08-11T06:02:01;28.50;99.90
54082;DHT22;39986;50.770;0.266;2022-08-11T06:04:28;28.10;99.90
54082;DHT22;39986;50.770;0.266;2022-08-11T06:07:06;27.10;99.90
54082;DHT22;39986;50.770;0.266;2022-08-11T06:09:45;26.10;99.90
54082;DHT22;39986;50.770;0.266;2022-08-11T06:12:27;25.30;99.90
54082;DHT22;39986;50.770;0.266;2022-08-11T06:15:02;24.70;99.90
54082;DHT22;39986;50.770;0.266;2022-08-11T06:17:31;24.10;99.90
54082;DHT22;39986;50.770;0.266;2022-08-11T06:20:08;23.80;99.90
54082;DHT22;39986;50.770;0.266;2022-08-11T06:22:37;23.50;99.90
54082;DHT22;39986;50.770;0.266;2022-08-11T06:25:06;23.40;99.90
54082;DHT22;39986;50.770;0.266;2022-08-11T06:27:35;23.30;99.90
54082;DHT22;39986;50.770;0.266;2022-08-11T06:30:03;23.20;99.90
54082;DHT22;39986;50.770;0.266;2022-08-11T06:32:42;23.10;99.90
54082;DHT22;39986;50.770;0.266;2022-08-11T06:35:20;23.20;99.90
54082;DHT22;39986;50.770;0.266;2022-08-11T06:38:03;23.20;99.90
54082;DHT22;39986;50.770;0.266;2022-08-11T06:40:53;23.20;99.90
54082;DHT22;39986;50.770;0.266;2022-08-11T06:46:47;23.30;99.90
54082;DHT22;39986;50.770;0.266;2022-08-11T06:49:14;23.40;99.90
54082;DHT22;39986;50.770;0.266;2022-08-11T06:52:12;23.50;99.90
54082;DHT22;39986;50.770;0.266;2022-08-11T06:54:50;23.60;99.90
54082;DHT22;39986;50.770;0.266;2022-08-11T06:57:21;23.70;99.90
54082;DHT22;39986;50.770;0.266;2022-08-11T07:00:07;23.70;99.90
54082;DHT22;39986;50.770;0.266;2022-08-11T07:03:00;23.80;99.90
54082;DHT22;39986;50.770;0.266;2022-08-11T07:08:08;24.00;99.90
54082;DHT22;39986;50.770;0.266;2022-08-11T07:14:07;24.20;99.90
54082;DHT22;39986;50.770;0.266;2022-08-11T07:16:57;24.30;99.90
54082;DHT22;39986;50.770;0.266;2022-08-11T07:19:25;24.40;99.90
54082;DHT22;39986;50.770;0.266;2022-08-11T07:22:15;24.50;99.90
54082;DHT22;39986;50.770;0.266;2022-08-11T07:25:12;24.50;99.90
54082;DHT22;39986;50.770;0.266;2022-08-11T07:28:00;24.60;99.90
54082;DHT22;39986;50.770;0.266;2022-08-11T07:30:46;24.70;99.90
54082;DHT22;39986;50.770;0.266;2022-08-11T07:33:18;24.80;99.90
54082;DHT22;39986;50.770;0.266;2022-08-11T07:35:52;25.00;99.90
54082;DHT22;39986;50.770;0.266;2022-08-11T07:38:23;25.00;99.90
54082;DHT22;39986;50.770;0.266;2022-08-11T07:41:11;25.10;99.90
54082;DHT22;39986;50.770;0.266;2022-08-11T07:43:39;25.20;99.90
54082;DHT22;39986;50.770;0.266;2022-08-11T07:46:06;25.30;99.90
54082;DHT22;39986;50.770;0.266;2022-08-11T07:48:51;25.40;99.90
54082;DHT22;39986;50.770;0.266;2022-08-11T07:51:38;25.40;99.90
54082;DHT22;39986;50.770;0.266;2022-08-11T07:54:23;25.60;99.90
54082;DHT22;39986;50.770;0.266;2022-08-11T07:56:50;25.70;99.90
54082;DHT22;39986;50.770;0.266;2022-08-11T07:59:17;25.80;99.90
54082;DHT22;39986;50.770;0.266;2022-08-11T08:02:02;25.90;99.90
54082;DHT22;39986;50.770;0.266;2022-08-11T08:04:47;26.00;99.90
54082;DHT22;39986;50.770;0.266;2022-08-11T08:07:32;26.10;99.90
54082;DHT22;39986;50.770;0.266;2022-08-11T08:10:18;26.30;99.90
54082;DHT22;39986;50.770;0.266;2022-08-11T08:13:03;26.50;99.90
54082;DHT22;39986;50.770;0.266;2022-08-11T08:15:49;26.50;99.90
54082;DHT22;39986;50.770;0.266;2022-08-11T08:18:35;26.60;99.90
54082;DHT22;39986;50.770;0.266;2022-08-11T08:21:04;26.70;99.90
54082;DHT22;39986;50.770;0.266;2022-08-11T08:23:45;26.80;99.90
54082;DHT22;39986;50.770;0.266;2022-08-11T08:26:14;27.00;99.90
54082;DHT22;39986;50.770;0.266;2022-08-11T08:29:04;27.10;99.90
54082;DHT22;39986;50.770;0.266;2022-08-11T08:31:50;27.10;99.90
54082;DHT22;39986;50.770;0.266;2022-08-11T08:34:16;27.10;99.90
54082;DHT22;39986;50.770;0.266;2022-08-11T08:36:44;27.20;99.90
54082;DHT22;39986;50.770;0.266;2022-08-11T08:39:12;27.40;99.90
54082;DHT22;39986;50.770;0.266;2022-08-11T08:41:38;27.60;99.90
54082;DHT22;39986;50.770;0.266;2022-08-11T08:44:10;27.80;99.90
54082;DHT22;39986;50.770;0.266;2022-08-11T08:46:42;27.80;99.90
54082;DHT22;39986;50.770;0.266;2022-08-11T08:49:14;27.80;99.90
54082;DHT22;39986;50.770;0.266;2022-08-11T08:51:41;27.90;99.90
54082;DHT22;39986;50.770;0.266;2022-08-11T08:54:13;28.10;99.90
54082;DHT22;39986;50.770;0.266;2022-08-11T08:56:43;28.30;99.90
54082;DHT22;39986;50.770;0.266;2022-08-11T08:59:11;28.30;99.90
54082;DHT22;39986;50.770;0.266;2022-08-11T09:01:45;28.50;99.90
54082;DHT22;39986;50.770;0.266;2022-08-11T09:04:17;28.60;99.90
54082;DHT22;39986;50.770;0.266;2022-08-11T09:06:44;28.70;99.90
54082;DHT22;39986;50.770;0.266;2022-08-11T09:09:12;28.80;99.90
54082;DHT22;39986;50.770;0.266;2022-08-11T09:11:40;28.90;99.90
54082;DHT22;39986;50.770;0.266;2022-08-11T09:14:23;29.10;99.90
54082;DHT22;39986;50.770;0.266;2022-08-11T09:16:51;29.20;99.90
54082;DHT22;39986;50.770;0.266;2022-08-11T09:19:20;29.30;99.90
54082;DHT22;39986;50.770;0.266;2022-08-11T09:21:48;29.40;99.90
54082;DHT22;39986;50.770;0.266;2022-08-11T09:24:38;29.60;99.90
54082;DHT22;39986;50.770;0.266;2022-08-11T09:27:23;29.80;99.90
54082;DHT22;39986;50.770;0.266;2022-08-11T09:29:50;29.90;99.90
54082;DHT22;39986;50.770;0.266;2022-08-11T09:32:21;29.90;99.90
54082;DHT22;39986;50.770;0.266;2022-08-11T09:34:49;29.90;99.90
54082;DHT22;39986;50.770;0.266;2022-08-11T09:37:16;29.70;99.90
54082;DHT22;39986;50.770;0.266;2022-08-11T09:40:02;29.90;99.90
54082;DHT22;39986;50.770;0.266;2022-08-11T09:42:47;29.70;99.90
54082;DHT22;39986;50.770;0.266;2022-08-11T09:45:33;29.30;99.90
54082;DHT22;39986;50.770;0.266;2022-08-11T09:47:59;28.70;99.90
54082;DHT22;39986;50.770;0.266;2022-08-11T09:50:26;28.40;99.90
54082;DHT22;39986;50.770;0.266;2022-08-11T09:52:53;28.00;99.90
54082;DHT22;39986;50.770;0.266;2022-08-11T09:55:19;27.80;99.90
54082;DHT22;39986;50.770;0.266;2022-08-11T09:57:46;27.80;99.90
54082;DHT22;39986;50.770;0.266;2022-08-11T10:00:32;27.80;99.90
54082;DHT22;39986;50.770;0.266;2022-08-11T10:03:22;28.00;99.90
54082;DHT22;39986;50.770;0.266;2022-08-11T10:05:58;27.70;99.90
54082;DHT22;39986;50.770;0.266;2022-08-11T10:09:10;27.40;99.90
54082;DHT22;39986;50.770;0.266;2022-08-11T10:11:38;27.30;99.90
54082;DHT22;39986;50.770;0.266;2022-08-11T10:14:06;27.40;99.90
54082;DHT22;39986;50.770;0.266;2022-08-11T10:16:51;27.60;99.90
54082;DHT22;39986;50.770;0.266;2022-08-11T10:19:18;27.70;99.90
54082;DHT22;39986;50.770;0.266;2022-08-11T10:21:50;27.90;99.90
54082;DHT22;39986;50.770;0.266;2022-08-11T10:24:38;27.80;99.90
54082;DHT22;39986;50.770;0.266;2022-08-11T10:27:24;27.60;99.90
54082;DHT22;39986;50.770;0.266;2022-08-11T10:29:51;27.40;99.90
54082;DHT22;39986;50.770;0.266;2022-08-11T10:32:37;27.40;99.90
54082;DHT22;39986;50.770;0.266;2022-08-11T10:35:22;27.40;99.90
54082;DHT22;39986;50.770;0.266;2022-08-11T10:37:51;27.60;99.90
54082;DHT22;39986;50.770;0.266;2022-08-11T10:40:20;27.60;99.90
54082;DHT22;39986;50.770;0.266;2022-08-11T10:42:56;27.70;99.90
54082;DHT22;39986;50.770;0.266;2022-08-11T10:45:39;28.00;99.90
54082;DHT22;39986;50.770;0.266;2022-08-11T10:48:26;28.10;99.90
54082;DHT22;39986;50.770;0.266;2022-08-11T10:50:53;28.30;99.90
54082;DHT22;39986;50.770;0.266;2022-08-11T10:53:43;28.40;99.90
54082;DHT22;39986;50.770;0.266;2022-08-11T10:56:31;28.80;99.90
54082;DHT22;39986;50.770;0.266;2022-08-11T10:59:16;29.00;99.90
54082;DHT22;39986;50.770;0.266;2022-08-11T11:01:43;29.80;99.90
54082;DHT22;39986;50.770;0.266;2022-08-11T11:04:58;30.90;99.90
54082;DHT22;39986;50.770;0.266;2022-08-11T11:08:00;32.90;98.80
54082;DHT22;39986;50.770;0.266;2022-08-11T11:10:49;34.30;96.50
54082;DHT22;39986;50.770;0.266;2022-08-11T11:13:16;36.60;93.80
54082;DHT22;39986;50.770;0.266;2022-08-11T11:16:00;37.10;91.70
54082;DHT22;39986;50.770;0.266;2022-08-11T11:18:45;36.80;92.20
54082;DHT22;39986;50.770;0.266;2022-08-11T11:21:18;36.90;91.60
54082;DHT22;39986;50.770;0.266;2022-08-11T11:24:11;36.60;91.70
54082;DHT22;39986;50.770;0.266;2022-08-11T11:34:42;36.70;89.60
54082;DHT22;39986;50.770;0.266;2022-08-11T11:37:13;36.00;91.40
54082;DHT22;39986;50.770;0.266;2022-08-11T11:39:41;36.40;91.40
54082;DHT22;39986;50.770;0.266;2022-08-11T11:42:09;36.50;91.40
54082;DHT22;39986;50.770;0.266;2022-08-11T11:44:40;36.40;91.20
54082;DHT22;39986;50.770;0.266;2022-08-11T11:47:10;35.80;91.40
54082;DHT22;39986;50.770;0.266;2022-08-11T11:49:37;35.80;91.10
54082;DHT22;39986;50.770;0.266;2022-08-11T11:52:07;35.40;91.70
54082;DHT22;39986;50.770;0.266;2022-08-11T11:54:38;35.60;91.60
54082;DHT22;39986;50.770;0.266;2022-08-11T11:57:05;35.20;91.60
54082;DHT22;39986;50.770;0.266;2022-08-11T11:59:51;34.90;92.40
54082;DHT22;39986;50.770;0.266;2022-08-11T12:02:36;35.20;91.60
54082;DHT22;39986;50.770;0.266;2022-08-11T12:05:07;36.00;89.90
54082;DHT22;39986;50.770;0.266;2022-08-11T12:07:35;37.10;85.40
54082;DHT22;39986;50.770;0.266;2022-08-11T12:10:20;36.70;85.50
54082;DHT22;39986;50.770;0.266;2022-08-11T12:12:47;36.50;85.20
54082;DHT22;39986;50.770;0.266;2022-08-11T12:15:32;36.50;83.90
54082;DHT22;39986;50.770;0.266;2022-08-11T12:17:59;36.50;85.10
54082;DHT22;39986;50.770;0.266;2022-08-11T12:20:26;36.30;82.70
54082;DHT22;39986;50.770;0.266;2022-08-11T12:22:53;36.00;83.60
54082;DHT22;39986;50.770;0.266;2022-08-11T12:25:37;38.20;78.80
54082;DHT22;39986;50.770;0.266;2022-08-11T12:28:47;38.10;76.50
54082;DHT22;39986;50.770;0.266;2022-08-11T12:31:14;38.00;74.60
54082;DHT22;39986;50.770;0.266;2022-08-11T12:33:40;37.80;73.70
54082;DHT22;39986;50.770;0.266;2022-08-11T12:36:07;37.40;72.40
54082;DHT22;39986;50.770;0.266;2022-08-11T12:38:35;36.10;74.40
54082;DHT22;39986;50.770;0.266;2022-08-11T12:41:01;35.90;75.40
54082;DHT22;39986;50.770;0.266;2022-08-11T12:43:46;36.20;73.80
54082;DHT22;39986;50.770;0.266;2022-08-11T12:46:33;35.30;77.40
54082;DHT22;39986;50.770;0.266;2022-08-11T12:49:11;34.80;76.80
54082;DHT22;39986;50.770;0.266;2022-08-11T12:51:57;34.60;76.20
54082;DHT22;39986;50.770;0.266;2022-08-11T12:54:33;35.80;72.50
54082;DHT22;39986;50.770;0.266;2022-08-11T12:57:06;35.90;71.30
54082;DHT22;39986;50.770;0.266;2022-08-11T12:59:52;35.30;72.80
54082;DHT22;39986;50.770;0.266;2022-08-11T13:02:39;35.80;72.80
54082;DHT22;39986;50.770;0.266;2022-08-11T13:05:24;36.10;70.70
54082;DHT22;39986;50.770;0.266;2022-08-11T13:07:51;36.20;71.20
54082;DHT22;39986;50.770;0.266;2022-08-11T13:10:18;36.30;69.20
54082;DHT22;39986;50.770;0.266;2022-08-11T13:13:05;36.70;68.50
54082;DHT22;39986;50.770;0.266;2022-08-11T13:15:32;38.10;67.10
54082;DHT22;39986;50.770;0.266;2022-08-11T13:17:58;38.10;65.00
54082;DHT22;39986;50.770;0.266;2022-08-11T13:20:25;36.70;67.50
54082;DHT22;39986;50.770;0.266;2022-08-11T13:22:53;36.10;69.30
54082;DHT22;39986;50.770;0.266;2022-08-11T13:25:25;35.40;68.20
54082;DHT22;39986;50.770;0.266;2022-08-11T13:27:55;35.70;68.30
54082;DHT22;39986;50.770;0.266;2022-08-11T13:30:24;35.80;68.50
54082;DHT22;39986;50.770;0.266;2022-08-11T13:33:11;35.90;67.90
54082;DHT22;39986;50.770;0.266;2022-08-11T13:35:37;35.50;68.90
54082;DHT22;39986;50.770;0.266;2022-08-11T13:38:04;35.90;67.30
54082;DHT22;39986;50.770;0.266;2022-08-11T13:40:31;35.20;70.70
54082;DHT22;39986;50.770;0.266;2022-08-11T13:42:57;35.40;69.70
54082;DHT22;39986;50.770;0.266;2022-08-11T13:45:25;35.60;70.20
54082;DHT22;39986;50.770;0.266;2022-08-11T13:47:54;36.60;65.60
54082;DHT22;39986;50.770;0.266;2022-08-11T13:50:20;37.80;63.70
54082;DHT22;39986;50.770;0.266;2022-08-11T13:53:08;38.20;63.30
54082;DHT22;39986;50.770;0.266;2022-08-11T13:55:37;39.40;59.80
54082;DHT22;39986;50.770;0.266;2022-08-11T13:58:03;37.70;62.40
54082;DHT22;39986;50.770;0.266;2022-08-11T14:00:29;36.20;65.20
54082;DHT22;39986;50.770;0.266;2022-08-11T14:02:56;35.50;66.60
54082;DHT22;39986;50.770;0.266;2022-08-11T14:05:49;35.00;66.00
54082;DHT22;39986;50.770;0.266;2022-08-11T14:35:16;35.30;62.30
54082;DHT22;39986;50.770;0.266;2022-08-11T14:38:07;34.30;64.30
54082;DHT22;39986;50.770;0.266;2022-08-11T14:41:01;34.90;63.70
54082;DHT22;39986;50.770;0.266;2022-08-11T14:44:11;35.60;61.40
54082;DHT22;39986;50.770;0.266;2022-08-11T14:46:57;35.60;60.70
54082;DHT22;39986;50.770;0.266;2022-08-11T14:49:31;35.40;61.00
54082;DHT22;39986;50.770;0.266;2022-08-11T14:52:01;34.80;62.30
54082;DHT22;39986;50.770;0.266;2022-08-11T14:54:29;34.60;62.40
54082;DHT22;39986;50.770;0.266;2022-08-11T14:57:15;34.60;63.80
54082;DHT22;39986;50.770;0.266;2022-08-11T14:59:42;35.00;62.40
54082;DHT22;39986;50.770;0.266;2022-08-11T15:02:09;37.00;59.90
54082;DHT22;39986;50.770;0.266;2022-08-11T15:04:57;38.40;59.20
54082;DHT22;39986;50.770;0.266;2022-08-11T15:07:25;37.00;61.30
54082;DHT22;39986;50.770;0.266;2022-08-11T15:10:05;35.90;62.50
54082;DHT22;39986;50.770;0.266;2022-08-11T15:12:33;34.70;63.70
54082;DHT22;39986;50.770;0.266;2022-08-11T15:15:01;33.70;67.00
54082;DHT22;39986;50.770;0.266;2022-08-11T15:17:46;33.40;67.40
54082;DHT22;39986;50.770;0.266;2022-08-11T15:20:17;31.80;71.00
54082;DHT22;39986;50.770;0.266;2022-08-11T15:23:02;30.00;75.50
54082;DHT22;39986;50.770;0.266;2022-08-11T15:26:02;28.90;77.40
54082;DHT22;39986;50.770;0.266;2022-08-11T15:28:32;28.60;79.80
54082;DHT22;39986;50.770;0.266;2022-08-11T15:31:19;28.60;79.10
54082;DHT22;39986;50.770;0.266;2022-08-11T15:34:05;28.70;79.90
54082;DHT22;39986;50.770;0.266;2022-08-11T15:36:56;28.60;79.30
54082;DHT22;39986;50.770;0.266;2022-08-11T15:45:38;28.00;80.90
54082;DHT22;39986;50.770;0.266;2022-08-11T15:51:10;27.90;82.90
54082;DHT22;39986;50.770;0.266;2022-08-11T15:54:04;27.90;84.20
54082;DHT22;39986;50.770;0.266;2022-08-11T15:56:35;27.80;86.00
54082;DHT22;39986;50.770;0.266;2022-08-11T15:59:04;27.80;85.70
54082;DHT22;39986;50.770;0.266;2022-08-11T16:01:50;27.80;84.60
54082;DHT22;39986;50.770;0.266;2022-08-11T16:04:40;27.80;85.90
54082;DHT22;39986;50.770;0.266;2022-08-11T16:07:15;27.80;86.60
54082;DHT22;39986;50.770;0.266;2022-08-11T16:09:47;27.70;86.70
54082;DHT22;39986;50.770;0.266;2022-08-11T16:12:23;27.60;88.10
54082;DHT22;39986;50.770;0.266;2022-08-11T16:14:53;27.70;88.80
54082;DHT22;39986;50.770;0.266;2022-08-11T16:17:50;27.50;88.80
54082;DHT22;39986;50.770;0.266;2022-08-11T16:20:19;27.30;88.20
54082;DHT22;39986;50.770;0.266;2022-08-11T16:22:46;27.30;89.20
54082;DHT22;39986;50.770;0.266;2022-08-11T16:25:22;27.10;89.00
54082;DHT22;39986;50.770;0.266;2022-08-11T16:27:58;27.10;87.90
54082;DHT22;39986;50.770;0.266;2022-08-11T16:30:27;27.10;86.90
54082;DHT22;39986;50.770;0.266;2022-08-11T16:32:55;27.10;88.00
54082;DHT22;39986;50.770;0.266;2022-08-11T16:35:23;27.00;87.80
54082;DHT22;39986;50.770;0.266;2022-08-11T16:38:09;26.90;87.70
54082;DHT22;39986;50.770;0.266;2022-08-11T16:40:56;26.90;87.60
54082;DHT22;39986;50.770;0.266;2022-08-11T16:43:25;26.90;87.00
54082;DHT22;39986;50.770;0.266;2022-08-11T16:46:13;27.00;88.10
54082;DHT22;39986;50.770;0.266;2022-08-11T16:49:12;27.00;87.50
54082;DHT22;39986;50.770;0.266;2022-08-11T16:51:40;27.00;87.50
54082;DHT22;39986;50.770;0.266;2022-08-11T16:54:06;27.00;87.40
54082;DHT22;39986;50.770;0.266;2022-08-11T16:56:42;27.00;86.80
54082;DHT22;39986;50.770;0.266;2022-08-11T16:59:18;27.00;87.60
54082;DHT22;39986;50.770;0.266;2022-08-11T17:01:53;27.10;87.20
54082;DHT22;39986;50.770;0.266;2022-08-11T17:04:46;27.20;87.30
54082;DHT22;39986;50.770;0.266;2022-08-11T17:07:53;27.20;87.20
54082;DHT22;39986;50.770;0.266;2022-08-11T17:10:48;27.30;87.10
54082;DHT22;39986;50.770;0.266;2022-08-11T17:14:15;27.30;86.90
54082;DHT22;39986;50.770;0.266;2022-08-11T17:16:37;27.30;87.70
54082;DHT22;39986;50.770;0.266;2022-08-11T17:19:09;27.30;86.70
54082;DHT22;39986;50.770;0.266;2022-08-11T17:21:40;27.40;86.40
54082;DHT22;39986;50.770;0.266;2022-08-11T17:24:27;27.30;87.10
54082;DHT22;39986;50.770;0.266;2022-08-11T17:26:56;27.20;86.90
54082;DHT22;39986;50.770;0.266;2022-08-11T17:32:04;27.20;86.80
54082;DHT22;39986;50.770;0.266;2022-08-11T17:34:51;27.20;86.90
54082;DHT22;39986;50.770;0.266;2022-08-11T17:37:37;27.10;88.00
54082;DHT22;39986;50.770;0.266;2022-08-11T17:40:06;27.10;88.40
54082;DHT22;39986;50.770;0.266;2022-08-11T17:42:35;27.10;88.20
54082;DHT22;39986;50.770;0.266;2022-08-11T17:45:21;27.10;87.90
54082;DHT22;39986;50.770;0.266;2022-08-11T17:48:06;27.10;87.60
54082;DHT22;39986;50.770;0.266;2022-08-11T17:50:56;27.10;88.40
54082;DHT22;39986;50.770;0.266;2022-08-11T17:53:25;27.10;90.10
54082;DHT22;39986;50.770;0.266;2022-08-11T17:56:11;27.00;89.80
54082;DHT22;39986;50.770;0.266;2022-08-11T17:58:57;27.00;90.20
54082;DHT22;39986;50.770;0.266;2022-08-11T18:01:42;27.00;90.50
54082;DHT22;39986;50.770;0.266;2022-08-11T18:04:10;27.00;90.80
54082;DHT22;39986;50.770;0.266;2022-08-11T18:06:37;26.90;91.30
54082;DHT22;39986;50.770;0.266;2022-08-11T18:09:08;26.90;91.80
54082;DHT22;39986;50.770;0.266;2022-08-11T18:11:54;26.80;92.00
54082;DHT22;39986;50.770;0.266;2022-08-11T18:14:45;26.80;92.50
54082;DHT22;39986;50.770;0.266;2022-08-11T18:17:30;26.70;92.90
54082;DHT22;39986;50.770;0.266;2022-08-11T18:20:16;26.70;93.10
54082;DHT22;39986;50.770;0.266;2022-08-11T18:23:03;26.60;93.30
54082;DHT22;39986;50.770;0.266;2022-08-11T18:25:49;26.60;93.90
54082;DHT22;39986;50.770;0.266;2022-08-11T18:28:43;26.50;94.10
54082;DHT22;39986;50.770;0.266;2022-08-11T18:31:32;26.50;94.20
54082;DHT22;39986;50.770;0.266;2022-08-11T18:34:31;26.40;94.20
54082;DHT22;39986;50.770;0.266;2022-08-11T18:37:18;26.40;94.70
54082;DHT22;39986;50.770;0.266;2022-08-11T18:40:10;26.40;94.80
54082;DHT22;39986;50.770;0.266;2022-08-11T18:42:59;26.30;94.80
54082;DHT22;39986;50.770;0.266;2022-08-11T18:45:46;26.40;94.90
54082;DHT22;39986;50.770;0.266;2022-08-11T18:48:34;26.40;95.20
54082;DHT22;39986;50.770;0.266;2022-08-11T18:51:20;26.30;95.80
54082;DHT22;39986;50.770;0.266;2022-08-11T18:54:08;26.10;95.60
54082;DHT22;39986;50.770;0.266;2022-08-11T18:56:53;26.10;95.80
54082;DHT22;39986;50.770;0.266;2022-08-11T18:59:41;26.00;96.20
54082;DHT22;39986;50.770;0.266;2022-08-11T19:02:27;25.90;96.80
54082;DHT22;39986;50.770;0.266;2022-08-11T19:05:14;25.90;97.30
54082;DHT22;39986;50.770;0.266;2022-08-11T19:08:00;25.90;97.50
54082;DHT22;39986;50.770;0.266;2022-08-11T19:10:45;25.80;97.70
54082;DHT22;39986;50.770;0.266;2022-08-11T19:13:31;25.80;97.90
54082;DHT22;39986;50.770;0.266;2022-08-11T19:16:17;25.70;98.00
54082;DHT22;39986;50.770;0.266;2022-08-11T19:19:03;25.70;98.10
54082;DHT22;39986;50.770;0.266;2022-08-11T19:21:50;25.70;98.10
54082;DHT22;39986;50.770;0.266;2022-08-11T19:24:36;25.70;98.30
54082;DHT22;39986;50.770;0.266;2022-08-11T19:27:23;25.70;98.30
54082;DHT22;39986;50.770;0.266;2022-08-11T19:30:10;25.70;98.50
54082;DHT22;39986;50.770;0.266;2022-08-11T19:32:55;25.60;98.80
54082;DHT22;39986;50.770;0.266;2022-08-11T19:35:41;25.50;99.20
54082;DHT22;39986;50.770;0.266;2022-08-11T19:38:26;25.50;99.40
54082;DHT22;39986;50.770;0.266;2022-08-11T19:41:13;25.50;99.60
54082;DHT22;39986;50.770;0.266;2022-08-11T19:44:00;25.40;99.80
54082;DHT22;39986;50.770;0.266;2022-08-11T19:46:45;25.30;99.90
54082;DHT22;39986;50.770;0.266;2022-08-11T19:49:31;25.30;99.90
54082;DHT22;39986;50.770;0.266;2022-08-11T19:52:16;25.30;99.90
54082;DHT22;39986;50.770;0.266;2022-08-11T19:55:02;25.20;99.90
54082;DHT22;39986;50.770;0.266;2022-08-11T19:57:47;25.10;99.90
54082;DHT22;39986;50.770;0.266;2022-08-11T20:00:34;25.00;99.90
54082;DHT22;39986;50.770;0.266;2022-08-11T20:03:19;24.90;99.90
54082;DHT22;39986;50.770;0.266;2022-08-11T20:06:06;24.90;99.00
54082;DHT22;39986;50.770;0.266;2022-08-11T20:08:52;24.90;97.70
54082;DHT22;39986;50.770;0.266;2022-08-11T20:11:41;24.90;96.60
54082;DHT22;39986;50.770;0.266;2022-08-11T20:14:28;25.00;95.90
54082;DHT22;39986;50.770;0.266;2022-08-11T20:17:14;25.00;95.60
54082;DHT22;39986;50.770;0.266;2022-08-11T20:20:03;25.00;95.40
54082;DHT22;39986;50.770;0.266;2022-08-11T20:22:50;25.00;95.10
54082;DHT22;39986;50.770;0.266;2022-08-11T20:25:35;25.00;94.90
54082;DHT22;39986;50.770;0.266;2022-08-11T20:28:20;24.90;94.60
54082;DHT22;39986;50.770;0.266;2022-08-11T20:31:08;24.90;94.70